createdAt,value
2022-12-11T00:00:15.872Z,99670.60
2022-12-11T00:05:41.041Z,99662.20
2022-12-11T00:10:50.302Z,99653.20
2022-12-11T00:15:53.297Z,99652.20
2022-12-11T00:21:01.753Z,99651.40
2022-12-11T00:26:15.521Z,99641.60
2022-12-11T00:31:20.707Z,99644.00
2022-12-11T00:36:26.718Z,99642.80
2022-12-11T00:41:29.981Z,99643.60
2022-12-11T00:46:32.980Z,99645.80
2022-12-11T00:51:36.194Z,99650.60
2022-12-11T00:56:39.583Z,99644.00
2022-12-11T01:01:42.702Z,99648.20
2022-12-11T01:06:45.740Z,99649.60
2022-12-11T01:11:48.826Z,99656.20
2022-12-11T01:16:51.951Z,99646.60
2022-12-11T01:21:54.949Z,99638.00
2022-12-11T01:26:57.958Z,99643.40
2022-12-11T01:32:00.914Z,99640.60
2022-12-11T01:37:04.015Z,99629.80
2022-12-11T01:42:10.460Z,99628.80
2022-12-11T01:47:14.073Z,99630.20
2022-12-11T01:52:22.438Z,99644.20
2022-12-11T01:57:25.440Z,99642.80
2022-12-11T02:02:32.425Z,99637.60
2022-12-11T02:07:48.677Z,99629.00
2022-12-11T02:13:08.014Z,99618.00
2022-12-11T02:18:29.167Z,99622.60
2022-12-11T02:23:59.452Z,99617.00
2022-12-11T02:29:10.250Z,99621.80
2022-12-11T02:34:46.882Z,99614.40
2022-12-11T02:39:54.277Z,99623.40
2022-12-11T02:45:01.655Z,99626.80
2022-12-11T02:50:12.734Z,99615.20
2022-12-11T02:55:23.105Z,99595.80
2022-12-11T03:00:26.499Z,99596.60
2022-12-11T03:05:30.479Z,99594.40
2022-12-11T03:10:33.794Z,99595.40
2022-12-11T03:15:47.044Z,99596.20
2022-12-11T03:21:07.247Z,99584.00
2022-12-11T03:26:14.734Z,99591.20
2022-12-11T03:31:30.162Z,99588.60
2022-12-11T03:36:37.545Z,99579.20
2022-12-11T03:41:44.322Z,99580.00
2022-12-11T03:46:49.549Z,99574.40
2022-12-11T03:51:55.621Z,99569.40
2022-12-11T03:57:02.391Z,99578.00
2022-12-11T04:02:11.170Z,99565.60
2022-12-11T04:07:14.259Z,99569.80
2022-12-11T04:12:17.288Z,99563.60
2022-12-11T04:17:39.062Z,99568.60
2022-12-11T04:23:00.615Z,99567.80
2022-12-11T04:28:03.762Z,99564.40
2022-12-11T04:33:06.902Z,99558.60
2022-12-11T04:38:09.921Z,99556.00
2022-12-11T04:43:12.939Z,99565.80
2022-12-11T04:48:15.869Z,99559.20
2022-12-11T04:53:18.831Z,99561.40
2022-12-11T04:58:22.678Z,99564.20
2022-12-11T05:03:25.623Z,99569.00
2022-12-11T05:08:28.725Z,99562.40
2022-12-11T05:13:31.940Z,99549.40
2022-12-11T05:18:35.790Z,99545.00
2022-12-11T05:23:39.790Z,99550.00
2022-12-11T05:28:44.525Z,99548.60
2022-12-11T05:33:50.355Z,99548.60
2022-12-11T05:38:55.018Z,99543.00
2022-12-11T05:43:58.048Z,99542.00
2022-12-11T05:49:02.444Z,99542.00
2022-12-11T05:54:05.751Z,99547.00
2022-12-11T05:59:09.183Z,99552.60
2022-12-11T06:04:13.385Z,99556.00
2022-12-11T06:09:17.311Z,99555.00
2022-12-11T06:14:20.429Z,99559.40
2022-12-11T06:19:23.450Z,99546.60
2022-12-11T06:24:26.343Z,99544.40
2022-12-11T06:29:29.335Z,99536.00
2022-12-11T06:34:32.345Z,99546.40
2022-12-11T06:39:35.294Z,99549.00
2022-12-11T06:44:38.270Z,99548.20
2022-12-11T06:49:41.293Z,99539.40
2022-12-11T06:54:44.249Z,99540.20
2022-12-11T06:59:47.283Z,99535.40
2022-12-11T07:04:54.894Z,99530.20
2022-12-11T07:10:04.083Z,99534.80
2022-12-11T07:15:11.191Z,99536.00
2022-12-11T07:20:14.446Z,99533.00
2022-12-11T07:25:17.555Z,99524.80
2022-12-11T07:30:20.605Z,99529.60
2022-12-11T07:35:23.486Z,99519.00
2022-12-11T07:40:26.406Z,99513.00
2022-12-11T07:45:29.823Z,99510.20
2022-12-11T07:50:38.056Z,99513.60
2022-12-11T07:55:42.936Z,99514.40
2022-12-11T08:00:45.847Z,99511.20
2022-12-11T08:05:50.920Z,99511.40
2022-12-11T08:10:53.890Z,99520.80
2022-12-11T08:15:57.039Z,99513.40
2022-12-11T08:21:06.371Z,99516.40
2022-12-11T08:26:15.133Z,99503.80
2022-12-11T08:31:19.835Z,99515.40
2022-12-11T08:36:24.588Z,99512.40
2022-12-11T08:41:30.560Z,99506.40
2022-12-11T08:46:33.834Z,99503.40
2022-12-11T08:51:37.049Z,99496.00
2022-12-11T08:56:40.078Z,99496.80
2022-12-11T09:01:43.106Z,99483.00
2022-12-11T09:06:46.309Z,99486.80
2022-12-11T09:11:49.998Z,99495.80
2022-12-11T09:16:53.054Z,99479.00
2022-12-11T09:21:56.404Z,99483.60
2022-12-11T09:26:59.763Z,99475.80
2022-12-11T09:32:04.376Z,99467.80
2022-12-11T09:37:08.382Z,99461.00
2022-12-11T09:42:32.127Z,99447.80
2022-12-11T09:47:45.835Z,99429.80
2022-12-11T09:53:01.259Z,99429.80
2022-12-11T09:58:11.557Z,99417.20
2022-12-11T10:03:47.718Z,99424.40
2022-12-11T10:09:24.547Z,99421.40
2022-12-11T10:14:40.900Z,99417.80
2022-12-11T10:19:45.647Z,99405.40
2022-12-11T10:25:14.499Z,99400.20
2022-12-11T10:30:34.522Z,99391.00
2022-12-11T10:35:51.872Z,99390.40
2022-12-11T10:41:04.801Z,99390.00
2022-12-11T10:46:23.902Z,99369.40
2022-12-11T10:51:32.865Z,99379.40
2022-12-11T10:56:38.092Z,99379.40
2022-12-11T11:01:47.662Z,99375.40
2022-12-11T11:07:13.071Z,99368.40
2022-12-11T11:12:27.933Z,99358.80
2022-12-11T11:17:35.385Z,99346.60
2022-12-11T11:22:47.564Z,99340.20
2022-12-11T11:27:58.578Z,99337.00
2022-12-11T11:33:15.764Z,99335.20
2022-12-11T11:38:23.745Z,99328.60
2022-12-11T11:44:07.289Z,99327.40
2022-12-11T11:49:12.830Z,99330.00
2022-12-11T11:54:33.289Z,99324.00
2022-12-11T11:59:49.579Z,99313.60
2022-12-11T12:04:53.384Z,99298.80
2022-12-11T12:10:23.673Z,99305.20
2022-12-11T12:15:35.898Z,99311.00
2022-12-11T12:20:56.671Z,99302.00
2022-12-11T12:26:15.057Z,99287.40
2022-12-11T12:31:44.285Z,99289.20
2022-12-11T12:38:00.545Z,99289.40
2022-12-11T12:43:28.947Z,99278.80
2022-12-11T12:48:33.122Z,99269.80
2022-12-11T12:53:37.590Z,99260.60
2022-12-11T12:58:45.785Z,99261.20
2022-12-11T13:03:59.088Z,99252.80
2022-12-11T13:09:32.970Z,99244.80
2022-12-11T13:14:36.534Z,99240.80
2022-12-11T13:19:42.703Z,99238.60
2022-12-11T13:24:53.005Z,99236.40
2022-12-11T13:30:16.299Z,99244.00
2022-12-11T13:35:20.982Z,99236.80
2022-12-11T13:40:35.301Z,99236.80
2022-12-11T13:45:51.021Z,99227.60
2022-12-11T13:50:56.441Z,99227.60
2022-12-11T13:56:00.933Z,99221.00
2022-12-11T14:01:14.627Z,99224.20
2022-12-11T14:06:19.164Z,99216.60
2022-12-11T14:11:30.434Z,99210.60
2022-12-11T14:16:34.389Z,99203.40
2022-12-11T14:21:38.537Z,99198.00
2022-12-11T14:26:53.081Z,99187.80
2022-12-11T14:32:01.710Z,99178.60
2022-12-11T14:37:08.315Z,99172.40
2022-12-11T14:42:23.318Z,99165.60
2022-12-11T14:47:32.528Z,99162.80
2022-12-11T14:52:53.879Z,99159.00
2022-12-11T14:58:15.310Z,99147.60
2022-12-11T15:03:18.164Z,99143.80
2022-12-11T15:08:31.282Z,99151.20
2022-12-11T15:13:39.018Z,99137.40
2022-12-11T15:18:43.102Z,99133.60
2022-12-11T15:23:45.916Z,99136.00
2022-12-11T15:29:01.217Z,99130.20
2022-12-11T15:34:04.277Z,99132.00
2022-12-11T15:39:09.566Z,99127.20
2022-12-11T15:44:22.433Z,99121.20
2022-12-11T15:49:25.393Z,99113.20
2022-12-11T15:54:28.342Z,99110.40
2022-12-11T15:59:33.142Z,99111.80
2022-12-11T16:04:36.223Z,99109.00
2022-12-11T16:09:39.152Z,99108.80
2022-12-11T16:14:44.527Z,99110.60
2022-12-11T16:19:47.521Z,99111.80
2022-12-11T16:24:55.183Z,99099.60
2022-12-11T16:29:58.133Z,99097.00
2022-12-11T16:35:01.338Z,99084.80
2022-12-11T16:40:08.991Z,99080.00
2022-12-11T16:45:22.000Z,99081.60
2022-12-11T16:50:26.025Z,99083.00
2022-12-11T16:55:28.986Z,99085.40
2022-12-11T17:00:31.937Z,99081.20
2022-12-11T17:05:34.840Z,99075.20
2022-12-11T17:10:42.355Z,99065.00
2022-12-11T17:15:46.162Z,99067.80
2022-12-11T17:20:49.339Z,99074.00
2022-12-11T17:25:53.044Z,99058.80
2022-12-11T17:30:57.293Z,99063.00
2022-12-11T17:36:03.063Z,99065.80
2022-12-11T17:41:09.388Z,99065.20
2022-12-11T17:46:14.239Z,99070.20
2022-12-11T17:51:24.615Z,99064.20
2022-12-11T17:56:27.672Z,99061.80
2022-12-11T18:01:30.808Z,99054.60
2022-12-11T18:06:33.969Z,99051.60
2022-12-11T18:11:37.117Z,99050.00
2022-12-11T18:16:40.143Z,99048.60
2022-12-11T18:21:45.919Z,99046.00
2022-12-11T18:26:49.224Z,99041.80
2022-12-11T18:31:52.305Z,99041.60
2022-12-11T18:36:55.714Z,99042.80
2022-12-11T18:42:31.060Z,99038.80
2022-12-11T18:47:21.997Z,99027.40
2022-12-11T18:52:24.906Z,99031.40
2022-12-11T18:57:27.898Z,99033.00
2022-12-11T19:02:30.816Z,99032.20
2022-12-11T19:07:33.871Z,99032.00
2022-12-11T19:12:36.929Z,99032.80
2022-12-11T19:17:39.913Z,99027.20
2022-12-11T19:22:42.851Z,99026.40
2022-12-11T19:27:47.622Z,99019.20
2022-12-11T19:32:50.549Z,99015.40
2022-12-11T19:37:53.434Z,99008.60
2022-12-11T19:42:56.466Z,99005.80
2022-12-11T19:47:59.441Z,99006.80
2022-12-11T19:53:02.663Z,99003.40
2022-12-11T19:58:06.010Z,99006.80
2022-12-11T20:03:09.119Z,99008.60
2022-12-11T20:08:42.981Z,99002.80
2022-12-11T20:13:40.800Z,99003.20
2022-12-11T20:18:44.868Z,98993.40
2022-12-11T20:23:48.332Z,98991.60
2022-12-11T20:28:53.453Z,98987.40
2022-12-11T20:33:57.710Z,98986.00
2022-12-11T20:39:00.892Z,98980.60
2022-12-11T20:44:03.956Z,98981.80
2022-12-11T20:49:12.882Z,98973.80
2022-12-11T20:54:16.112Z,98969.00
2022-12-11T20:59:19.165Z,98967.00
2022-12-11T21:04:23.675Z,98965.00
2022-12-11T21:09:27.969Z,98966.80
2022-12-11T21:14:32.287Z,98963.20
2022-12-11T21:19:35.195Z,98955.80
2022-12-11T21:24:38.485Z,98948.80
2022-12-11T21:29:41.546Z,98931.20
2022-12-11T21:34:44.404Z,98941.60
2022-12-11T21:39:47.423Z,98937.80
2022-12-11T21:45:51.833Z,98928.80
2022-12-11T21:50:13.400Z,98916.40
2022-12-11T21:55:18.343Z,98905.60
2022-12-11T22:00:22.550Z,98906.60
2022-12-11T22:05:25.525Z,98901.20
2022-12-11T22:10:29.658Z,98889.60
2022-12-11T22:15:32.611Z,98883.80
2022-12-11T22:20:35.516Z,98886.20
2022-12-11T22:25:39.560Z,98879.00
2022-12-11T22:30:43.612Z,98881.00
2022-12-11T22:35:46.569Z,98884.60
2022-12-11T22:40:49.674Z,98880.60
2022-12-11T22:45:52.675Z,98871.80
2022-12-11T22:50:55.585Z,98863.20
2022-12-11T22:55:58.531Z,98865.80
2022-12-11T23:01:03.083Z,98859.80
2022-12-11T23:06:11.195Z,98864.40
2022-12-11T23:11:26.805Z,98857.20
2022-12-11T23:16:29.830Z,98849.40
2022-12-11T23:21:33.859Z,98851.60
2022-12-11T23:26:37.872Z,98852.40
2022-12-11T23:31:40.859Z,98850.80
2022-12-11T23:36:43.753Z,98851.20
2022-12-11T23:41:46.741Z,98846.20
2022-12-11T23:46:49.841Z,98849.20
2022-12-11T23:51:52.826Z,98851.40
2022-12-11T23:56:55.851Z,98853.20
